This is the latest recevied weather packets stored in our database for station/object AK4NG. If no packets are shown the sender has not sent any weather packets the latest 1 day(s).
| Time | Temp. | Humidity | Pressure | Rain* | Wind** | Luminosity | Snow |
|---|---|---|---|---|---|---|---|
| 1778088314 | 26.67° C | 72% | 1016.6 hPa | 0 mm | - | 439 W/m² | - |
| 1778087405 | 26.67° C | 69% | 1016.6 hPa | 0 mm | - | 414 W/m² | - |
| 1778083466 | 25.56° C | 73% | 1017.2 hPa | 0 mm | - | 508 W/m² | - |
| 1778082861 | 25° C | 76% | 1017.1 hPa | 0 mm | - | 486 W/m² | - |
| 1778080835 | 24.44° C | 76% | 1017.4 hPa | 0 mm | - | 127 W/m² | - |
| 1778079926 | 25° C | 74% | 1017.5 hPa | 0 mm | - | 341 W/m² | - |
| 1778079623 | 25° C | 74% | 1017.3 hPa | 0 mm | - | 313 W/m² | - |
| 1778077807 | 23.89° C | 79% | 1017 hPa | 0 mm | - | 708 W/m² | - |
| 1778077504 | 23.89° C | 79% | 1017.2 hPa | 0 mm | - | 237 W/m² | - |
| 1778077202 | 23.33° C | 81% | 1017 hPa | 0 mm | - | 313 W/m² | - |
| 1778076598 | 23.89° C | 80% | 1017.4 hPa | 0 mm | - | 243 W/m² | - |
| 1778074475 | 22.22° C | 85% | 1017.3 hPa | 0 mm | - | 182 W/m² | - |
| 1778072354 | 21.67° C | 89% | 1016.4 hPa | 0 mm | - | 112 W/m² | - |
| 1778071447 | 21.11° C | 90% | 1016.2 hPa | 0 mm | - | 110 W/m² | - |
| 1778069935 | 20° C | 95% | 1016.2 hPa | 0 mm | - | 66 W/m² | - |
| 1778069026 | 19.44° C | 97% | 1015.7 hPa | 0 mm | - | 49 W/m² | - |
| 1778067515 | 18.89° C | 97% | 1015.4 hPa | 0 mm | - | 26 W/m² | - |
| 1778066606 | 18.89° C | 97% | 1015.1 hPa | 0 mm | - | 21 W/m² | - |
| 1778064789 | 18.89° C | 96% | 1014.3 hPa | 0 mm | - | 3 W/m² | - |
| 1778064184 | 18.89° C | 95% | 1013.9 hPa | 0 mm | - | 0 W/m² | - |
| 1778063579 | 18.89° C | 95% | 1013.9 hPa | 0 mm | - | 0 W/m² | - |
| 1778063276 | 18.89° C | 95% | 1014 hPa | 0 mm | - | 0 W/m² | - |
| 1778062974 | 19.44° C | 95% | 1013.9 hPa | 0 mm | - | 0 W/m² | - |
| 1778062671 | 19.44° C | 94% | 1013.5 hPa | 0 mm | - | 0 W/m² | - |
| 1778062367 | 19.44° C | 94% | 1013.7 hPa | 0 mm | - | 0 W/m² | - |
* Rain latest hour (hover to see other rain measurements)
** Current wind speed in m/s (hover to see current wind gust speed)